sensor_id;sensor_type;location;lat;lon;timestamp;P1;durP1;ratioP1;P2;durP2;ratioP2
81211;SDS011;70686;52.494;13.420;2023-07-08T00:00:52;10.35;;;5.25;;
81211;SDS011;70686;52.494;13.420;2023-07-08T00:03:19;11.05;;;5.50;;
81211;SDS011;70686;52.494;13.420;2023-07-08T00:05:46;11.43;;;5.88;;
81211;SDS011;70686;52.494;13.420;2023-07-08T00:08:19;10.75;;;5.85;;
81211;SDS011;70686;52.494;13.420;2023-07-08T00:10:55;11.13;;;7.28;;
81211;SDS011;70686;52.494;13.420;2023-07-08T00:13:21;11.23;;;7.45;;
81211;SDS011;70686;52.494;13.420;2023-07-08T00:15:51;14.25;;;6.55;;
81211;SDS011;70686;52.494;13.420;2023-07-08T00:18:17;9.98;;;5.97;;
81211;SDS011;70686;52.494;13.420;2023-07-08T00:20:45;8.43;;;5.97;;
81211;SDS011;70686;52.494;13.420;2023-07-08T00:23:13;12.75;;;6.68;;
81211;SDS011;70686;52.494;13.420;2023-07-08T00:25:39;9.23;;;5.88;;
81211;SDS011;70686;52.494;13.420;2023-07-08T00:28:12;7.03;;;5.00;;
81211;SDS011;70686;52.494;13.420;2023-07-08T00:30:41;7.45;;;5.43;;
81211;SDS011;70686;52.494;13.420;2023-07-08T00:33:07;11.32;;;5.68;;
81211;SDS011;70686;52.494;13.420;2023-07-08T00:35:41;6.85;;;5.10;;
81211;SDS011;70686;52.494;13.420;2023-07-08T00:38:24;8.77;;;5.63;;
81211;SDS011;70686;52.494;13.420;2023-07-08T00:40:59;8.57;;;5.18;;
81211;SDS011;70686;52.494;13.420;2023-07-08T00:43:38;9.82;;;6.18;;
81211;SDS011;70686;52.494;13.420;2023-07-08T00:54:52;9.85;;;5.93;;
81211;SDS011;70686;52.494;13.420;2023-07-08T00:57:19;7.45;;;5.75;;
81211;SDS011;70686;52.494;13.420;2023-07-08T00:59:58;7.43;;;5.30;;
81211;SDS011;70686;52.494;13.420;2023-07-08T01:02:38;5.70;;;5.00;;
81211;SDS011;70686;52.494;13.420;2023-07-08T01:05:12;8.05;;;5.13;;
81211;SDS011;70686;52.494;13.420;2023-07-08T01:07:41;6.72;;;4.70;;
81211;SDS011;70686;52.494;13.420;2023-07-08T01:10:10;5.72;;;4.75;;
81211;SDS011;70686;52.494;13.420;2023-07-08T01:12:41;6.55;;;4.43;;
81211;SDS011;70686;52.494;13.420;2023-07-08T01:15:11;7.18;;;4.53;;
81211;SDS011;70686;52.494;13.420;2023-07-08T01:17:37;7.28;;;4.57;;
81211;SDS011;70686;52.494;13.420;2023-07-08T01:20:05;6.97;;;4.43;;
81211;SDS011;70686;52.494;13.420;2023-07-08T01:22:34;10.05;;;4.55;;
81211;SDS011;70686;52.494;13.420;2023-07-08T01:25:01;10.02;;;4.82;;
81211;SDS011;70686;52.494;13.420;2023-07-08T01:27:29;5.53;;;4.60;;
81211;SDS011;70686;52.494;13.420;2023-07-08T01:29:59;8.50;;;4.40;;
81211;SDS011;70686;52.494;13.420;2023-07-08T01:32:26;8.32;;;5.07;;
81211;SDS011;70686;52.494;13.420;2023-07-08T01:34:54;7.05;;;4.90;;
81211;SDS011;70686;52.494;13.420;2023-07-08T01:38:08;8.68;;;4.63;;
81211;SDS011;70686;52.494;13.420;2023-07-08T01:42:57;5.60;;;4.45;;
81211;SDS011;70686;52.494;13.420;2023-07-08T01:45:26;7.22;;;4.30;;
81211;SDS011;70686;52.494;13.420;2023-07-08T01:50:26;8.48;;;4.47;;
81211;SDS011;70686;52.494;13.420;2023-07-08T01:52:54;12.85;;;4.40;;
81211;SDS011;70686;52.494;13.420;2023-07-08T01:58:05;9.48;;;4.03;;
81211;SDS011;70686;52.494;13.420;2023-07-08T02:00:30;4.57;;;4.18;;
81211;SDS011;70686;52.494;13.420;2023-07-08T02:02:56;10.27;;;4.10;;
81211;SDS011;70686;52.494;13.420;2023-07-08T02:05:22;6.60;;;4.20;;
81211;SDS011;70686;52.494;13.420;2023-07-08T02:07:48;6.93;;;4.30;;
81211;SDS011;70686;52.494;13.420;2023-07-08T02:10:14;4.70;;;4.18;;
81211;SDS011;70686;52.494;13.420;2023-07-08T02:12:40;4.38;;;4.00;;
81211;SDS011;70686;52.494;13.420;2023-07-08T02:15:07;9.02;;;4.28;;
81211;SDS011;70686;52.494;13.420;2023-07-08T02:17:34;5.22;;;4.20;;
81211;SDS011;70686;52.494;13.420;2023-07-08T02:20:00;5.63;;;4.70;;
81211;SDS011;70686;52.494;13.420;2023-07-08T02:22:25;7.68;;;4.57;;
81211;SDS011;70686;52.494;13.420;2023-07-08T02:24:51;5.93;;;4.60;;
81211;SDS011;70686;52.494;13.420;2023-07-08T02:27:17;8.23;;;4.65;;
81211;SDS011;70686;52.494;13.420;2023-07-08T02:29:43;8.57;;;4.80;;
81211;SDS011;70686;52.494;13.420;2023-07-08T02:32:08;6.75;;;4.40;;
81211;SDS011;70686;52.494;13.420;2023-07-08T02:37:00;8.18;;;5.13;;
81211;SDS011;70686;52.494;13.420;2023-07-08T02:39:26;16.17;;;5.00;;
81211;SDS011;70686;52.494;13.420;2023-07-08T02:41:52;11.00;;;5.18;;
81211;SDS011;70686;52.494;13.420;2023-07-08T02:44:25;8.15;;;4.93;;
81211;SDS011;70686;52.494;13.420;2023-07-08T02:46:52;5.03;;;4.32;;
81211;SDS011;70686;52.494;13.420;2023-07-08T02:51:43;8.90;;;4.32;;
81211;SDS011;70686;52.494;13.420;2023-07-08T02:54:09;5.00;;;4.47;;
81211;SDS011;70686;52.494;13.420;2023-07-08T02:56:35;6.38;;;3.90;;
81211;SDS011;70686;52.494;13.420;2023-07-08T02:59:01;7.03;;;4.45;;
81211;SDS011;70686;52.494;13.420;2023-07-08T03:01:27;5.45;;;4.35;;
81211;SDS011;70686;52.494;13.420;2023-07-08T03:03:53;7.75;;;4.47;;
81211;SDS011;70686;52.494;13.420;2023-07-08T03:06:23;6.40;;;4.80;;
81211;SDS011;70686;52.494;13.420;2023-07-08T03:08:51;6.43;;;4.05;;
81211;SDS011;70686;52.494;13.420;2023-07-08T03:11:17;7.55;;;4.30;;
81211;SDS011;70686;52.494;13.420;2023-07-08T03:13:42;5.65;;;4.18;;
81211;SDS011;70686;52.494;13.420;2023-07-08T03:16:08;8.93;;;4.65;;
81211;SDS011;70686;52.494;13.420;2023-07-08T03:18:37;5.53;;;4.70;;
81211;SDS011;70686;52.494;13.420;2023-07-08T03:21:11;5.65;;;4.10;;
81211;SDS011;70686;52.494;13.420;2023-07-08T03:23:38;7.65;;;4.60;;
81211;SDS011;70686;52.494;13.420;2023-07-08T03:26:04;4.80;;;4.22;;
81211;SDS011;70686;52.494;13.420;2023-07-08T03:28:30;8.60;;;4.75;;
81211;SDS011;70686;52.494;13.420;2023-07-08T03:30:56;5.07;;;4.28;;
81211;SDS011;70686;52.494;13.420;2023-07-08T03:33:21;8.25;;;4.55;;
81211;SDS011;70686;52.494;13.420;2023-07-08T03:35:47;5.47;;;4.35;;
81211;SDS011;70686;52.494;13.420;2023-07-08T03:38:14;7.50;;;4.18;;
81211;SDS011;70686;52.494;13.420;2023-07-08T03:40:39;7.40;;;4.60;;
81211;SDS011;70686;52.494;13.420;2023-07-08T03:43:05;6.90;;;4.28;;
81211;SDS011;70686;52.494;13.420;2023-07-08T03:45:31;9.52;;;4.68;;
81211;SDS011;70686;52.494;13.420;2023-07-08T03:47:56;7.68;;;4.40;;
81211;SDS011;70686;52.494;13.420;2023-07-08T03:50:24;6.85;;;4.55;;
81211;SDS011;70686;52.494;13.420;2023-07-08T03:52:51;8.73;;;4.20;;
81211;SDS011;70686;52.494;13.420;2023-07-08T03:55:19;7.93;;;4.53;;
81211;SDS011;70686;52.494;13.420;2023-07-08T03:57:45;7.70;;;4.60;;
81211;SDS011;70686;52.494;13.420;2023-07-08T04:00:11;6.07;;;4.07;;
81211;SDS011;70686;52.494;13.420;2023-07-08T04:02:38;4.60;;;4.18;;
81211;SDS011;70686;52.494;13.420;2023-07-08T04:05:17;5.55;;;4.32;;
81211;SDS011;70686;52.494;13.420;2023-07-08T04:07:45;8.35;;;4.40;;
81211;SDS011;70686;52.494;13.420;2023-07-08T04:10:11;5.80;;;4.30;;
81211;SDS011;70686;52.494;13.420;2023-07-08T04:12:38;5.90;;;4.40;;
81211;SDS011;70686;52.494;13.420;2023-07-08T04:15:06;9.10;;;4.00;;
81211;SDS011;70686;52.494;13.420;2023-07-08T04:17:35;8.38;;;4.20;;
81211;SDS011;70686;52.494;13.420;2023-07-08T04:20:07;8.38;;;4.13;;
81211;SDS011;70686;52.494;13.420;2023-07-08T04:22:36;7.13;;;4.13;;
81211;SDS011;70686;52.494;13.420;2023-07-08T04:25:02;6.75;;;4.13;;
81211;SDS011;70686;52.494;13.420;2023-07-08T04:27:29;9.38;;;3.83;;
81211;SDS011;70686;52.494;13.420;2023-07-08T04:29:54;6.05;;;4.00;;
81211;SDS011;70686;52.494;13.420;2023-07-08T04:32:20;5.40;;;4.40;;
81211;SDS011;70686;52.494;13.420;2023-07-08T04:34:49;7.30;;;4.00;;
81211;SDS011;70686;52.494;13.420;2023-07-08T04:39:41;4.88;;;3.92;;
81211;SDS011;70686;52.494;13.420;2023-07-08T04:42:07;5.18;;;3.95;;
81211;SDS011;70686;52.494;13.420;2023-07-08T04:44:33;6.20;;;3.67;;
81211;SDS011;70686;52.494;13.420;2023-07-08T04:47:00;4.93;;;3.95;;
81211;SDS011;70686;52.494;13.420;2023-07-08T04:49:26;6.85;;;3.70;;
81211;SDS011;70686;52.494;13.420;2023-07-08T04:51:56;6.88;;;3.80;;
81211;SDS011;70686;52.494;13.420;2023-07-08T04:54:24;6.75;;;3.83;;
81211;SDS011;70686;52.494;13.420;2023-07-08T04:56:50;5.93;;;3.85;;
81211;SDS011;70686;52.494;13.420;2023-07-08T04:59:20;11.00;;;4.00;;
81211;SDS011;70686;52.494;13.420;2023-07-08T05:01:49;6.50;;;3.53;;
81211;SDS011;70686;52.494;13.420;2023-07-08T05:04:17;7.50;;;3.92;;
81211;SDS011;70686;52.494;13.420;2023-07-08T05:06:45;5.50;;;3.80;;
81211;SDS011;70686;52.494;13.420;2023-07-08T05:09:14;9.40;;;3.42;;
81211;SDS011;70686;52.494;13.420;2023-07-08T05:11:40;5.70;;;3.53;;
81211;SDS011;70686;52.494;13.420;2023-07-08T05:14:06;7.20;;;3.67;;
81211;SDS011;70686;52.494;13.420;2023-07-08T05:16:32;7.15;;;3.22;;
81211;SDS011;70686;52.494;13.420;2023-07-08T05:19:00;8.80;;;4.10;;
81211;SDS011;70686;52.494;13.420;2023-07-08T05:21:28;5.80;;;3.55;;
81211;SDS011;70686;52.494;13.420;2023-07-08T05:23:58;5.63;;;3.67;;
81211;SDS011;70686;52.494;13.420;2023-07-08T05:26:24;6.10;;;3.63;;
81211;SDS011;70686;52.494;13.420;2023-07-08T05:28:50;6.07;;;3.80;;
81211;SDS011;70686;52.494;13.420;2023-07-08T05:31:15;9.52;;;4.38;;
81211;SDS011;70686;52.494;13.420;2023-07-08T05:36:07;6.03;;;3.58;;
81211;SDS011;70686;52.494;13.420;2023-07-08T05:41:05;4.30;;;3.40;;
81211;SDS011;70686;52.494;13.420;2023-07-08T05:43:31;6.47;;;3.83;;
81211;SDS011;70686;52.494;13.420;2023-07-08T05:45:58;7.85;;;3.72;;
81211;SDS011;70686;52.494;13.420;2023-07-08T05:48:25;5.50;;;3.90;;
81211;SDS011;70686;52.494;13.420;2023-07-08T05:53:19;4.25;;;3.58;;
81211;SDS011;70686;52.494;13.420;2023-07-08T05:55:47;5.43;;;3.63;;
81211;SDS011;70686;52.494;13.420;2023-07-08T05:58:14;5.15;;;3.38;;
81211;SDS011;70686;52.494;13.420;2023-07-08T06:00:41;4.07;;;3.67;;
81211;SDS011;70686;52.494;13.420;2023-07-08T06:03:10;3.80;;;3.50;;
81211;SDS011;70686;52.494;13.420;2023-07-08T06:05:43;4.47;;;3.55;;
81211;SDS011;70686;52.494;13.420;2023-07-08T06:08:09;4.80;;;3.17;;
81211;SDS011;70686;52.494;13.420;2023-07-08T06:13:06;7.63;;;3.67;;
81211;SDS011;70686;52.494;13.420;2023-07-08T06:17:57;4.40;;;3.40;;
81211;SDS011;70686;52.494;13.420;2023-07-08T06:20:27;6.00;;;3.88;;
81211;SDS011;70686;52.494;13.420;2023-07-08T06:22:53;12.15;;;4.15;;
81211;SDS011;70686;52.494;13.420;2023-07-08T06:27:45;4.72;;;3.22;;
81211;SDS011;70686;52.494;13.420;2023-07-08T06:32:37;7.35;;;3.88;;
81211;SDS011;70686;52.494;13.420;2023-07-08T06:37:28;3.83;;;3.30;;
81211;SDS011;70686;52.494;13.420;2023-07-08T06:42:22;7.35;;;5.20;;
81211;SDS011;70686;52.494;13.420;2023-07-08T06:44:49;13.10;;;6.80;;
81211;SDS011;70686;52.494;13.420;2023-07-08T06:47:19;12.50;;;7.18;;
81211;SDS011;70686;52.494;13.420;2023-07-08T06:49:48;7.53;;;6.30;;
81211;SDS011;70686;52.494;13.420;2023-07-08T06:52:14;6.22;;;5.05;;
81211;SDS011;70686;52.494;13.420;2023-07-08T06:54:40;5.90;;;3.50;;
81211;SDS011;70686;52.494;13.420;2023-07-08T06:57:06;8.15;;;6.32;;
81211;SDS011;70686;52.494;13.420;2023-07-08T07:01:58;7.20;;;4.50;;
81211;SDS011;70686;52.494;13.420;2023-07-08T07:06:49;4.47;;;3.50;;
81211;SDS011;70686;52.494;13.420;2023-07-08T07:11:41;7.05;;;3.70;;
81211;SDS011;70686;52.494;13.420;2023-07-08T07:14:07;3.63;;;3.20;;
81211;SDS011;70686;52.494;13.420;2023-07-08T07:16:34;4.80;;;3.35;;
81211;SDS011;70686;52.494;13.420;2023-07-08T07:19:00;3.80;;;3.40;;
81211;SDS011;70686;52.494;13.420;2023-07-08T07:21:27;5.22;;;3.28;;
81211;SDS011;70686;52.494;13.420;2023-07-08T07:23:55;5.88;;;3.35;;
81211;SDS011;70686;52.494;13.420;2023-07-08T07:26:21;4.90;;;3.10;;
81211;SDS011;70686;52.494;13.420;2023-07-08T07:28:47;18.33;;;3.58;;
81211;SDS011;70686;52.494;13.420;2023-07-08T07:31:14;5.65;;;3.15;;
81211;SDS011;70686;52.494;13.420;2023-07-08T07:33:40;3.60;;;3.25;;
81211;SDS011;70686;52.494;13.420;2023-07-08T07:36:06;7.18;;;3.20;;
81211;SDS011;70686;52.494;13.420;2023-07-08T07:38:35;7.18;;;5.28;;
81211;SDS011;70686;52.494;13.420;2023-07-08T07:41:00;11.50;;;4.03;;
81211;SDS011;70686;52.494;13.420;2023-07-08T07:43:31;5.22;;;3.38;;
81211;SDS011;70686;52.494;13.420;2023-07-08T07:45:56;5.68;;;3.38;;
81211;SDS011;70686;52.494;13.420;2023-07-08T07:48:22;9.20;;;3.35;;
81211;SDS011;70686;52.494;13.420;2023-07-08T07:50:49;6.22;;;3.55;;
81211;SDS011;70686;52.494;13.420;2023-07-08T07:53:16;9.18;;;3.72;;
81211;SDS011;70686;52.494;13.420;2023-07-08T07:55:43;7.78;;;3.92;;
81211;SDS011;70686;52.494;13.420;2023-07-08T07:58:09;6.65;;;3.75;;
81211;SDS011;70686;52.494;13.420;2023-07-08T08:00:38;5.55;;;3.70;;
81211;SDS011;70686;52.494;13.420;2023-07-08T08:03:05;7.28;;;3.88;;
81211;SDS011;70686;52.494;13.420;2023-07-08T08:08:26;5.72;;;2.97;;
81211;SDS011;70686;52.494;13.420;2023-07-08T08:10:54;4.32;;;3.50;;
81211;SDS011;70686;52.494;13.420;2023-07-08T08:13:28;5.25;;;2.80;;
81211;SDS011;70686;52.494;13.420;2023-07-08T08:16:33;9.13;;;3.08;;
81211;SDS011;70686;52.494;13.420;2023-07-08T08:19:11;6.80;;;3.53;;
81211;SDS011;70686;52.494;13.420;2023-07-08T08:21:36;4.22;;;2.97;;
81211;SDS011;70686;52.494;13.420;2023-07-08T08:24:02;5.25;;;3.00;;
81211;SDS011;70686;52.494;13.420;2023-07-08T08:39:37;13.70;;;3.55;;
81211;SDS011;70686;52.494;13.420;2023-07-08T08:42:08;8.05;;;3.47;;
81211;SDS011;70686;52.494;13.420;2023-07-08T08:44:51;4.25;;;3.10;;
81211;SDS011;70686;52.494;13.420;2023-07-08T08:47:22;8.43;;;3.17;;
81211;SDS011;70686;52.494;13.420;2023-07-08T08:50:00;5.13;;;3.20;;
81211;SDS011;70686;52.494;13.420;2023-07-08T08:52:43;6.78;;;3.35;;
81211;SDS011;70686;52.494;13.420;2023-07-08T08:55:15;5.65;;;3.30;;
81211;SDS011;70686;52.494;13.420;2023-07-08T09:00:45;7.38;;;3.10;;
81211;SDS011;70686;52.494;13.420;2023-07-08T09:03:17;4.38;;;3.25;;
81211;SDS011;70686;52.494;13.420;2023-07-08T09:06:13;3.08;;;2.80;;
81211;SDS011;70686;52.494;13.420;2023-07-08T09:08:43;3.17;;;2.70;;
81211;SDS011;70686;52.494;13.420;2023-07-08T09:14:08;3.85;;;2.80;;
81211;SDS011;70686;52.494;13.420;2023-07-08T09:16:47;4.70;;;2.90;;
81211;SDS011;70686;52.494;13.420;2023-07-08T09:19:33;6.15;;;3.17;;
81211;SDS011;70686;52.494;13.420;2023-07-08T09:24:44;4.10;;;2.50;;
81211;SDS011;70686;52.494;13.420;2023-07-08T09:27:18;3.45;;;2.63;;
81211;SDS011;70686;52.494;13.420;2023-07-08T09:29:46;3.30;;;2.55;;
81211;SDS011;70686;52.494;13.420;2023-07-08T09:32:17;5.35;;;2.50;;
81211;SDS011;70686;52.494;13.420;2023-07-08T09:37:25;5.82;;;2.85;;
81211;SDS011;70686;52.494;13.420;2023-07-08T09:39:56;3.95;;;2.50;;
81211;SDS011;70686;52.494;13.420;2023-07-08T09:42:33;3.50;;;2.70;;
81211;SDS011;70686;52.494;13.420;2023-07-08T09:45:01;5.88;;;2.35;;
81211;SDS011;70686;52.494;13.420;2023-07-08T09:47:36;4.25;;;2.63;;
81211;SDS011;70686;52.494;13.420;2023-07-08T09:50:27;4.65;;;2.58;;
81211;SDS011;70686;52.494;13.420;2023-07-08T09:55:26;4.40;;;3.10;;
81211;SDS011;70686;52.494;13.420;2023-07-08T09:57:53;5.72;;;3.35;;
81211;SDS011;70686;52.494;13.420;2023-07-08T10:00:30;30.67;;;6.75;;
81211;SDS011;70686;52.494;13.420;2023-07-08T10:03:04;24.88;;;5.22;;
81211;SDS011;70686;52.494;13.420;2023-07-08T10:06:14;33.30;;;7.18;;
81211;SDS011;70686;52.494;13.420;2023-07-08T10:08:43;8.20;;;3.47;;
81211;SDS011;70686;52.494;13.420;2023-07-08T10:11:22;15.93;;;4.85;;
81211;SDS011;70686;52.494;13.420;2023-07-08T10:14:01;17.25;;;5.78;;
81211;SDS011;70686;52.494;13.420;2023-07-08T10:16:33;18.70;;;5.78;;
81211;SDS011;70686;52.494;13.420;2023-07-08T10:19:00;5.82;;;2.55;;
81211;SDS011;70686;52.494;13.420;2023-07-08T10:21:34;15.60;;;3.55;;
81211;SDS011;70686;52.494;13.420;2023-07-08T10:26:41;4.20;;;2.90;;
81211;SDS011;70686;52.494;13.420;2023-07-08T10:31:41;3.28;;;2.40;;
81211;SDS011;70686;52.494;13.420;2023-07-08T10:40:12;9.52;;;3.05;;
81211;SDS011;70686;52.494;13.420;2023-07-08T11:06:55;6.22;;;2.67;;
81211;SDS011;70686;52.494;13.420;2023-07-08T11:09:29;4.13;;;2.37;;
81211;SDS011;70686;52.494;13.420;2023-07-08T11:12:01;3.33;;;2.90;;
81211;SDS011;70686;52.494;13.420;2023-07-08T11:15:40;6.50;;;3.30;;
81211;SDS011;70686;52.494;13.420;2023-07-08T17:24:21;4.40;;;3.10;;
81211;SDS011;70686;52.494;13.420;2023-07-08T17:26:48;3.60;;;2.63;;
81211;SDS011;70686;52.494;13.420;2023-07-08T17:29:14;4.03;;;2.78;;
81211;SDS011;70686;52.494;13.420;2023-07-08T17:31:40;3.35;;;2.72;;
81211;SDS011;70686;52.494;13.420;2023-07-08T17:34:30;4.20;;;3.80;;
81211;SDS011;70686;52.494;13.420;2023-07-08T17:39:27;11.15;;;5.88;;
81211;SDS011;70686;52.494;13.420;2023-07-08T17:41:53;9.63;;;4.93;;
81211;SDS011;70686;52.494;13.420;2023-07-08T17:46:52;7.82;;;4.47;;
81211;SDS011;70686;52.494;13.420;2023-07-08T17:49:19;7.93;;;3.80;;
81211;SDS011;70686;52.494;13.420;2023-07-08T17:51:44;6.13;;;3.25;;
81211;SDS011;70686;52.494;13.420;2023-07-08T17:54:12;8.43;;;4.25;;
81211;SDS011;70686;52.494;13.420;2023-07-08T17:56:39;3.67;;;3.38;;
81211;SDS011;70686;52.494;13.420;2023-07-08T17:59:13;6.70;;;3.55;;
81211;SDS011;70686;52.494;13.420;2023-07-08T18:01:44;4.32;;;3.40;;
81211;SDS011;70686;52.494;13.420;2023-07-08T18:04:11;4.03;;;3.63;;
81211;SDS011;70686;52.494;13.420;2023-07-08T18:06:37;4.55;;;3.65;;
81211;SDS011;70686;52.494;13.420;2023-07-08T18:09:03;6.22;;;4.60;;
81211;SDS011;70686;52.494;13.420;2023-07-08T18:11:29;10.57;;;4.15;;
81211;SDS011;70686;52.494;13.420;2023-07-08T18:13:56;8.63;;;4.75;;
81211;SDS011;70686;52.494;13.420;2023-07-08T18:16:22;4.53;;;3.30;;
81211;SDS011;70686;52.494;13.420;2023-07-08T18:18:48;5.35;;;4.10;;
81211;SDS011;70686;52.494;13.420;2023-07-08T18:21:19;9.25;;;4.60;;
81211;SDS011;70686;52.494;13.420;2023-07-08T18:23:50;4.10;;;3.30;;
81211;SDS011;70686;52.494;13.420;2023-07-08T18:26:21;5.95;;;3.90;;
81211;SDS011;70686;52.494;13.420;2023-07-08T18:28:50;10.70;;;4.38;;
81211;SDS011;70686;52.494;13.420;2023-07-08T18:34:06;7.13;;;4.10;;
81211;SDS011;70686;52.494;13.420;2023-07-08T18:36:33;4.97;;;3.50;;
81211;SDS011;70686;52.494;13.420;2023-07-08T18:38:59;7.43;;;4.50;;
81211;SDS011;70686;52.494;13.420;2023-07-08T18:41:26;9.57;;;5.13;;
81211;SDS011;70686;52.494;13.420;2023-07-08T18:43:55;7.13;;;5.28;;
81211;SDS011;70686;52.494;13.420;2023-07-08T18:46:22;12.32;;;5.65;;
81211;SDS011;70686;52.494;13.420;2023-07-08T18:48:51;6.47;;;4.85;;
81211;SDS011;70686;52.494;13.420;2023-07-08T18:51:24;9.85;;;6.30;;
81211;SDS011;70686;52.494;13.420;2023-07-08T18:54:03;12.40;;;7.68;;
81211;SDS011;70686;52.494;13.420;2023-07-08T18:56:29;11.05;;;7.22;;
81211;SDS011;70686;52.494;13.420;2023-07-08T18:58:56;8.13;;;5.57;;
81211;SDS011;70686;52.494;13.420;2023-07-08T19:01:24;6.85;;;5.75;;
81211;SDS011;70686;52.494;13.420;2023-07-08T19:03:52;9.60;;;6.18;;
81211;SDS011;70686;52.494;13.420;2023-07-08T19:06:18;7.53;;;4.38;;
81211;SDS011;70686;52.494;13.420;2023-07-08T19:08:50;10.82;;;5.32;;
81211;SDS011;70686;52.494;13.420;2023-07-08T19:11:17;14.18;;;6.10;;
81211;SDS011;70686;52.494;13.420;2023-07-08T19:13:44;16.85;;;7.60;;
81211;SDS011;70686;52.494;13.420;2023-07-08T19:16:11;14.23;;;6.40;;
81211;SDS011;70686;52.494;13.420;2023-07-08T19:18:38;9.48;;;4.78;;
81211;SDS011;70686;52.494;13.420;2023-07-08T19:21:10;9.70;;;6.30;;
81211;SDS011;70686;52.494;13.420;2023-07-08T19:26:12;8.00;;;6.32;;
81211;SDS011;70686;52.494;13.420;2023-07-08T19:28:45;7.93;;;4.65;;
81211;SDS011;70686;52.494;13.420;2023-07-08T19:31:17;14.13;;;4.63;;
81211;SDS011;70686;52.494;13.420;2023-07-08T19:34:02;6.57;;;3.60;;
81211;SDS011;70686;52.494;13.420;2023-07-08T19:36:30;8.02;;;4.10;;
81211;SDS011;70686;52.494;13.420;2023-07-08T19:38:59;6.55;;;4.25;;
81211;SDS011;70686;52.494;13.420;2023-07-08T19:41:27;15.57;;;7.70;;
81211;SDS011;70686;52.494;13.420;2023-07-08T19:43:55;7.60;;;4.35;;
81211;SDS011;70686;52.494;13.420;2023-07-08T19:46:25;7.07;;;4.50;;
81211;SDS011;70686;52.494;13.420;2023-07-08T19:48:54;13.55;;;4.93;;
81211;SDS011;70686;52.494;13.420;2023-07-08T19:53:59;10.00;;;5.05;;
81211;SDS011;70686;52.494;13.420;2023-07-08T19:56:25;7.05;;;4.35;;
81211;SDS011;70686;52.494;13.420;2023-07-08T19:58:54;7.97;;;4.20;;
81211;SDS011;70686;52.494;13.420;2023-07-08T20:01:19;11.48;;;4.13;;
81211;SDS011;70686;52.494;13.420;2023-07-08T20:03:48;5.35;;;3.60;;
81211;SDS011;70686;52.494;13.420;2023-07-08T20:08:52;5.35;;;3.35;;
81211;SDS011;70686;52.494;13.420;2023-07-08T20:13:53;8.93;;;3.38;;
81211;SDS011;70686;52.494;13.420;2023-07-08T20:16:21;6.70;;;3.10;;
81211;SDS011;70686;52.494;13.420;2023-07-08T20:18:51;7.50;;;3.28;;
81211;SDS011;70686;52.494;13.420;2023-07-08T20:23:46;7.85;;;3.13;;
81211;SDS011;70686;52.494;13.420;2023-07-08T20:28:41;6.57;;;3.70;;
81211;SDS011;70686;52.494;13.420;2023-07-08T20:33:42;4.60;;;2.92;;
81211;SDS011;70686;52.494;13.420;2023-07-08T20:36:21;4.43;;;3.25;;
81211;SDS011;70686;52.494;13.420;2023-07-08T20:38:55;5.97;;;3.00;;
81211;SDS011;70686;52.494;13.420;2023-07-08T20:41:43;12.93;;;4.10;;
81211;SDS011;70686;52.494;13.420;2023-07-08T20:46:34;9.57;;;5.15;;
81211;SDS011;70686;52.494;13.420;2023-07-08T20:49:01;7.93;;;4.32;;
81211;SDS011;70686;52.494;13.420;2023-07-08T20:51:27;17.55;;;5.63;;
81211;SDS011;70686;52.494;13.420;2023-07-08T20:53:55;7.25;;;5.05;;
81211;SDS011;70686;52.494;13.420;2023-07-08T20:56:26;6.55;;;3.95;;
81211;SDS011;70686;52.494;13.420;2023-07-08T20:58:55;9.15;;;3.58;;
81211;SDS011;70686;52.494;13.420;2023-07-08T21:01:21;5.80;;;3.70;;
81211;SDS011;70686;52.494;13.420;2023-07-08T21:06:21;4.65;;;3.60;;
81211;SDS011;70686;52.494;13.420;2023-07-08T21:08:48;5.88;;;3.08;;
81211;SDS011;70686;52.494;13.420;2023-07-08T21:11:15;5.93;;;3.67;;
81211;SDS011;70686;52.494;13.420;2023-07-08T21:16:11;4.20;;;3.40;;
81211;SDS011;70686;52.494;13.420;2023-07-08T21:18:42;4.53;;;3.40;;
81211;SDS011;70686;52.494;13.420;2023-07-08T21:23:36;11.27;;;4.25;;
81211;SDS011;70686;52.494;13.420;2023-07-08T21:26:05;5.82;;;3.60;;
81211;SDS011;70686;52.494;13.420;2023-07-08T21:28:47;6.80;;;3.30;;
81211;SDS011;70686;52.494;13.420;2023-07-08T21:31:15;6.35;;;3.17;;
81211;SDS011;70686;52.494;13.420;2023-07-08T21:33:42;4.78;;;3.17;;
81211;SDS011;70686;52.494;13.420;2023-07-08T21:39:04;13.80;;;3.55;;
81211;SDS011;70686;52.494;13.420;2023-07-08T21:41:42;8.73;;;3.60;;
81211;SDS011;70686;52.494;13.420;2023-07-08T21:44:24;5.78;;;3.35;;
81211;SDS011;70686;52.494;13.420;2023-07-08T21:46:50;4.95;;;3.28;;
81211;SDS011;70686;52.494;13.420;2023-07-08T21:49:16;4.45;;;3.00;;
81211;SDS011;70686;52.494;13.420;2023-07-08T21:51:43;7.65;;;5.28;;
81211;SDS011;70686;52.494;13.420;2023-07-08T21:54:09;10.10;;;4.10;;
81211;SDS011;70686;52.494;13.420;2023-07-08T21:56:37;6.15;;;4.03;;
81211;SDS011;70686;52.494;13.420;2023-07-08T21:59:05;6.50;;;4.10;;
81211;SDS011;70686;52.494;13.420;2023-07-08T22:01:44;5.55;;;3.42;;
81211;SDS011;70686;52.494;13.420;2023-07-08T22:04:11;6.22;;;4.32;;
81211;SDS011;70686;52.494;13.420;2023-07-08T22:06:38;5.82;;;3.50;;
81211;SDS011;70686;52.494;13.420;2023-07-08T22:09:04;5.13;;;3.70;;
81211;SDS011;70686;52.494;13.420;2023-07-08T22:11:31;8.52;;;3.42;;
81211;SDS011;70686;52.494;13.420;2023-07-08T22:13:59;5.13;;;2.92;;
81211;SDS011;70686;52.494;13.420;2023-07-08T22:16:26;7.07;;;3.20;;
81211;SDS011;70686;52.494;13.420;2023-07-08T22:18:54;6.35;;;3.08;;
81211;SDS011;70686;52.494;13.420;2023-07-08T22:21:21;8.68;;;3.35;;
81211;SDS011;70686;52.494;13.420;2023-07-08T22:23:56;5.07;;;3.83;;
81211;SDS011;70686;52.494;13.420;2023-07-08T22:26:24;7.28;;;3.60;;
81211;SDS011;70686;52.494;13.420;2023-07-08T22:28:50;10.13;;;3.20;;
81211;SDS011;70686;52.494;13.420;2023-07-08T22:33:54;3.40;;;2.90;;
81211;SDS011;70686;52.494;13.420;2023-07-08T22:38:46;5.63;;;2.90;;
81211;SDS011;70686;52.494;13.420;2023-07-08T22:41:26;5.53;;;3.13;;
81211;SDS011;70686;52.494;13.420;2023-07-08T22:43:53;11.32;;;4.57;;
81211;SDS011;70686;52.494;13.420;2023-07-08T22:48:44;7.82;;;3.53;;
81211;SDS011;70686;52.494;13.420;2023-07-08T22:53:44;5.78;;;3.92;;
81211;SDS011;70686;52.494;13.420;2023-07-08T22:56:14;5.72;;;4.18;;
81211;SDS011;70686;52.494;13.420;2023-07-08T22:58:54;6.63;;;3.20;;
81211;SDS011;70686;52.494;13.420;2023-07-08T23:01:20;11.20;;;3.50;;
81211;SDS011;70686;52.494;13.420;2023-07-08T23:03:46;5.93;;;3.75;;
81211;SDS011;70686;52.494;13.420;2023-07-08T23:06:13;4.45;;;3.20;;
81211;SDS011;70686;52.494;13.420;2023-07-08T23:08:52;6.53;;;4.03;;
81211;SDS011;70686;52.494;13.420;2023-07-08T23:11:21;5.35;;;3.78;;
81211;SDS011;70686;52.494;13.420;2023-07-08T23:13:55;5.10;;;2.83;;
81211;SDS011;70686;52.494;13.420;2023-07-08T23:16:28;6.95;;;3.20;;
81211;SDS011;70686;52.494;13.420;2023-07-08T23:19:07;5.15;;;2.92;;
81211;SDS011;70686;52.494;13.420;2023-07-08T23:21:37;5.25;;;2.88;;
81211;SDS011;70686;52.494;13.420;2023-07-08T23:29:00;4.63;;;2.78;;
81211;SDS011;70686;52.494;13.420;2023-07-08T23:31:28;9.13;;;3.58;;
81211;SDS011;70686;52.494;13.420;2023-07-08T23:33:55;5.35;;;3.50;;
81211;SDS011;70686;52.494;13.420;2023-07-08T23:38:54;5.07;;;3.08;;
81211;SDS011;70686;52.494;13.420;2023-07-08T23:43:45;5.55;;;3.63;;
81211;SDS011;70686;52.494;13.420;2023-07-08T23:48:39;4.25;;;3.20;;
81211;SDS011;70686;52.494;13.420;2023-07-08T23:51:05;9.38;;;4.22;;